createdAt,value
2023-03-15T00:01:35.592Z,99.90
2023-03-15T00:04:02.383Z,99.90
2023-03-15T00:06:29.143Z,99.90
2023-03-15T00:08:56.121Z,99.90
2023-03-15T00:11:22.840Z,99.90
2023-03-15T00:13:51.598Z,99.90
2023-03-15T00:16:18.965Z,99.90
2023-03-15T00:18:47.418Z,99.90
2023-03-15T00:21:14.886Z,99.90
2023-03-15T00:23:41.592Z,99.90
2023-03-15T00:26:08.355Z,99.90
2023-03-15T00:28:35.166Z,99.90
2023-03-15T00:31:12.976Z,99.90
2023-03-15T00:33:39.720Z,99.90
2023-03-15T00:36:08.037Z,99.90
2023-03-15T00:38:36.171Z,99.90
2023-03-15T00:41:11.833Z,99.90
2023-03-15T00:43:39.099Z,99.90
2023-03-15T00:46:06.205Z,99.90
2023-03-15T00:48:35.234Z,99.90
2023-03-15T00:51:11.004Z,99.90
2023-03-15T00:53:40.268Z,99.90
2023-03-15T00:56:12.822Z,99.90
2023-03-15T00:58:40.046Z,99.90
2023-03-15T01:01:12.915Z,99.90
2023-03-15T01:03:40.844Z,99.90
2023-03-15T01:06:16.989Z,99.90
2023-03-15T01:08:44.611Z,99.90
2023-03-15T01:11:16.770Z,99.90
2023-03-15T01:13:43.626Z,99.90
2023-03-15T01:16:12.386Z,99.90
2023-03-15T01:18:39.614Z,99.90
2023-03-15T01:21:11.260Z,99.90
2023-03-15T01:23:38.395Z,99.90
2023-03-15T01:26:06.951Z,99.90
2023-03-15T01:28:33.816Z,99.90
2023-03-15T01:31:00.594Z,99.90
2023-03-15T01:33:27.675Z,99.90
2023-03-15T01:36:07.925Z,99.90
2023-03-15T01:38:35.088Z,99.90
2023-03-15T01:41:01.857Z,99.90
2023-03-15T01:43:34.465Z,99.90
2023-03-15T01:46:25.622Z,99.90
2023-03-15T01:49:04.881Z,99.90
2023-03-15T01:51:57.881Z,99.90
2023-03-15T01:54:30.374Z,99.90
2023-03-15T01:57:15.767Z,99.90
2023-03-15T01:59:54.251Z,99.90
2023-03-15T02:02:23.059Z,99.90
2023-03-15T02:04:56.436Z,99.90
2023-03-15T02:07:25.499Z,99.90
2023-03-15T02:10:08.510Z,99.90
2023-03-15T02:12:40.662Z,99.90
2023-03-15T02:15:09.169Z,99.90
2023-03-15T02:17:41.218Z,99.90
2023-03-15T02:20:27.493Z,99.90
2023-03-15T02:23:03.434Z,99.90
2023-03-15T02:25:51.842Z,99.90
2023-03-15T02:28:20.138Z,99.90
2023-03-15T02:30:48.453Z,99.90
2023-03-15T02:33:29.231Z,99.90
2023-03-15T02:36:05.985Z,99.90
2023-03-15T02:38:32.858Z,99.90
2023-03-15T02:41:00.326Z,99.90
2023-03-15T02:43:30.977Z,99.90
2023-03-15T02:45:58.186Z,99.90
2023-03-15T02:48:25.572Z,99.90
2023-03-15T02:50:52.292Z,99.90
2023-03-15T02:53:18.967Z,99.90
2023-03-15T02:55:45.669Z,99.90
2023-03-15T02:58:12.393Z,99.90
2023-03-15T03:00:39.413Z,99.90
2023-03-15T03:03:06.335Z,99.90
2023-03-15T03:05:33.056Z,99.90
2023-03-15T03:07:59.739Z,99.90
2023-03-15T03:10:26.666Z,99.90
2023-03-15T03:12:53.809Z,99.90
2023-03-15T03:15:21.196Z,99.90
2023-03-15T03:17:48.213Z,99.90
2023-03-15T03:20:15.288Z,99.90
2023-03-15T03:22:42.481Z,99.90
2023-03-15T03:25:12.537Z,99.90
2023-03-15T03:27:40.535Z,99.90
2023-03-15T03:30:09.945Z,99.90
2023-03-15T03:32:36.976Z,99.90
2023-03-15T03:35:03.778Z,99.90
2023-03-15T03:37:30.908Z,99.90
2023-03-15T03:39:58.149Z,99.90
2023-03-15T03:42:25.021Z,99.90
2023-03-15T03:44:54.026Z,99.90
2023-03-15T03:47:21.213Z,99.90
2023-03-15T03:49:47.909Z,99.90
2023-03-15T03:52:14.551Z,99.90
2023-03-15T03:54:42.745Z,99.90
2023-03-15T03:57:10.493Z,99.90
2023-03-15T03:59:37.249Z,99.90
2023-03-15T04:02:04.228Z,99.90
2023-03-15T04:04:31.082Z,99.90
2023-03-15T04:06:57.809Z,99.90
2023-03-15T04:09:25.139Z,99.90
2023-03-15T04:11:51.907Z,99.90
2023-03-15T04:14:18.704Z,99.90
2023-03-15T04:16:45.463Z,99.90
2023-03-15T04:19:12.940Z,99.90
2023-03-15T04:21:39.728Z,99.90
2023-03-15T04:24:07.451Z,99.90
2023-03-15T04:26:34.737Z,99.90
2023-03-15T04:29:01.468Z,99.90
2023-03-15T04:31:37.749Z,99.90
2023-03-15T04:34:05.806Z,99.90
2023-03-15T04:36:32.560Z,99.90
2023-03-15T04:39:04.354Z,99.90
2023-03-15T04:41:32.048Z,99.90
2023-03-15T04:43:58.707Z,99.90
2023-03-15T04:46:25.395Z,99.90
2023-03-15T04:48:52.339Z,99.90
2023-03-15T04:51:18.990Z,99.90
2023-03-15T04:53:45.772Z,99.90
2023-03-15T04:56:12.445Z,99.90
2023-03-15T04:58:39.093Z,99.90
2023-03-15T05:01:05.773Z,99.90
2023-03-15T05:03:32.535Z,99.90
2023-03-15T05:06:01.121Z,99.90
2023-03-15T05:08:27.876Z,99.90
2023-03-15T05:10:54.970Z,99.90
2023-03-15T05:13:21.621Z,99.90
2023-03-15T05:15:48.675Z,99.90
2023-03-15T05:18:15.322Z,99.90
2023-03-15T05:20:42.212Z,99.90
2023-03-15T05:23:08.909Z,99.90
2023-03-15T05:25:38.376Z,99.90
2023-03-15T05:28:06.036Z,99.90
2023-03-15T05:30:32.757Z,99.90
2023-03-15T05:32:59.532Z,99.90
2023-03-15T05:35:26.808Z,99.90
2023-03-15T05:37:55.711Z,99.90
2023-03-15T05:40:22.465Z,99.90
2023-03-15T05:42:49.090Z,99.90
2023-03-15T05:45:15.828Z,99.90
2023-03-15T05:47:42.847Z,99.90
2023-03-15T05:50:09.992Z,99.90
2023-03-15T05:52:36.648Z,99.90
2023-03-15T05:55:03.501Z,99.90
2023-03-15T05:57:30.400Z,99.90
2023-03-15T05:59:57.204Z,99.90
2023-03-15T06:02:24.227Z,99.90
2023-03-15T06:04:51.040Z,99.90
2023-03-15T06:07:17.852Z,99.90
2023-03-15T06:09:44.588Z,99.90
2023-03-15T06:12:11.407Z,99.90
2023-03-15T06:14:38.076Z,99.90
2023-03-15T06:17:04.773Z,99.90
2023-03-15T06:19:31.513Z,99.90
2023-03-15T06:21:58.136Z,99.90
2023-03-15T06:24:25.281Z,99.90
2023-03-15T06:26:54.898Z,99.90
2023-03-15T06:29:21.941Z,99.90
2023-03-15T06:31:52.854Z,99.90
2023-03-15T06:34:21.142Z,99.90
2023-03-15T06:36:49.442Z,99.90
2023-03-15T06:39:16.272Z,99.90
2023-03-15T06:41:42.947Z,99.90
2023-03-15T06:44:10.063Z,99.90
2023-03-15T06:46:37.223Z,99.90
2023-03-15T06:49:04.066Z,99.90
2023-03-15T06:51:30.983Z,99.90
2023-03-15T06:53:57.691Z,99.90
2023-03-15T06:56:24.385Z,99.90
2023-03-15T06:58:51.070Z,99.90
2023-03-15T07:01:17.798Z,99.90
2023-03-15T07:03:44.526Z,99.90
2023-03-15T07:06:11.187Z,99.90
2023-03-15T07:08:38.110Z,99.90
2023-03-15T07:11:06.344Z,99.90
2023-03-15T07:13:33.101Z,99.90
2023-03-15T07:15:59.884Z,99.90
2023-03-15T07:18:26.640Z,99.90
2023-03-15T07:21:00.921Z,99.90
2023-03-15T07:23:28.260Z,99.90
2023-03-15T07:25:56.000Z,99.90
2023-03-15T07:28:24.299Z,99.90
2023-03-15T07:31:02.102Z,99.90
2023-03-15T07:33:30.466Z,99.90
2023-03-15T07:35:57.485Z,99.90
2023-03-15T07:38:28.941Z,99.90
2023-03-15T07:40:56.718Z,99.90
2023-03-15T07:43:24.060Z,99.90
2023-03-15T07:45:51.116Z,99.90
2023-03-15T07:48:17.827Z,99.90
2023-03-15T07:50:45.898Z,99.90
2023-03-15T07:53:12.677Z,99.90
2023-03-15T07:55:39.788Z,99.90
2023-03-15T07:58:06.546Z,99.90
2023-03-15T08:00:33.239Z,99.90
2023-03-15T08:03:00.055Z,99.90
2023-03-15T08:05:29.057Z,99.90
2023-03-15T08:07:56.720Z,99.90
2023-03-15T08:10:23.761Z,99.90
2023-03-15T08:12:50.822Z,99.90
2023-03-15T08:15:18.067Z,99.90
2023-03-15T08:17:46.722Z,99.90
2023-03-15T08:20:17.827Z,99.90
2023-03-15T08:22:46.392Z,99.90
2023-03-15T08:25:15.378Z,99.90
2023-03-15T08:27:42.309Z,99.90
2023-03-15T08:30:12.592Z,99.90
2023-03-15T08:32:44.947Z,99.90
2023-03-15T08:35:15.502Z,99.90
2023-03-15T08:37:47.799Z,99.90
2023-03-15T08:40:25.657Z,99.90
2023-03-15T08:42:56.376Z,99.90
2023-03-15T08:45:24.735Z,99.90
2023-03-15T08:47:56.848Z,99.90
2023-03-15T08:50:24.104Z,99.90
2023-03-15T08:52:51.018Z,99.90
2023-03-15T08:55:17.880Z,99.90
2023-03-15T08:57:44.772Z,99.90
2023-03-15T09:00:22.705Z,99.90
2023-03-15T09:02:52.293Z,99.90
2023-03-15T09:05:21.061Z,99.90
2023-03-15T09:07:48.606Z,99.90
2023-03-15T09:10:17.075Z,99.90
2023-03-15T09:12:45.725Z,99.90
2023-03-15T09:15:12.553Z,99.90
2023-03-15T09:17:40.190Z,99.90
2023-03-15T09:20:14.319Z,99.90
2023-03-15T09:22:42.433Z,99.90
2023-03-15T09:25:10.101Z,99.90
2023-03-15T09:27:37.225Z,99.90
2023-03-15T09:30:04.537Z,99.90
2023-03-15T09:32:36.201Z,99.90
2023-03-15T09:35:09.264Z,99.90
2023-03-15T09:37:36.057Z,99.90
2023-03-15T09:40:04.470Z,99.90
2023-03-15T09:42:53.256Z,99.90
2023-03-15T09:45:40.424Z,99.90
2023-03-15T09:48:17.686Z,99.90
2023-03-15T09:51:01.007Z,97.50
2023-03-15T09:53:39.601Z,95.80
2023-03-15T09:56:35.678Z,91.40
2023-03-15T09:59:03.464Z,93.10
2023-03-15T10:01:38.117Z,92.00
2023-03-15T10:04:42.005Z,91.30
2023-03-15T10:07:14.800Z,95.40
2023-03-15T10:09:41.548Z,83.00
2023-03-15T10:12:31.064Z,89.20
2023-03-15T10:15:19.032Z,90.10
2023-03-15T10:17:59.192Z,84.90
2023-03-15T10:20:45.029Z,88.40
2023-03-15T10:23:26.529Z,90.70
2023-03-15T10:25:54.410Z,90.40
2023-03-15T10:28:27.744Z,77.30
2023-03-15T10:30:59.551Z,77.80
2023-03-15T10:33:37.995Z,82.80
2023-03-15T10:36:17.293Z,78.50
2023-03-15T10:38:45.507Z,75.60
2023-03-15T10:41:29.064Z,76.80
2023-03-15T10:44:03.379Z,74.00
2023-03-15T10:46:30.118Z,69.40
2023-03-15T10:48:59.361Z,68.00
2023-03-15T10:51:31.605Z,67.70
2023-03-15T10:54:13.290Z,68.00
2023-03-15T10:56:59.300Z,67.50
2023-03-15T10:59:28.672Z,68.70
2023-03-15T11:02:23.878Z,68.90
2023-03-15T11:04:59.623Z,67.80
2023-03-15T11:07:26.466Z,64.40
2023-03-15T11:09:59.661Z,61.00
2023-03-15T11:12:34.682Z,63.90
2023-03-15T11:15:10.957Z,64.50
2023-03-15T11:17:44.248Z,60.70
2023-03-15T11:20:36.402Z,60.90
2023-03-15T11:23:15.786Z,61.70
2023-03-15T11:25:42.995Z,62.50
2023-03-15T11:28:23.347Z,59.30
2023-03-15T11:30:50.412Z,56.70
2023-03-15T11:33:43.385Z,56.00
2023-03-15T11:36:22.523Z,56.70
2023-03-15T11:38:50.048Z,57.70
2023-03-15T11:41:35.179Z,60.50
2023-03-15T11:44:10.901Z,58.70
2023-03-15T11:46:57.766Z,58.00
2023-03-15T11:49:44.114Z,57.60
2023-03-15T11:52:10.928Z,59.20
2023-03-15T11:54:37.781Z,60.20
2023-03-15T11:57:07.618Z,55.70
2023-03-15T11:59:38.118Z,55.20
2023-03-15T12:02:11.252Z,54.40
2023-03-15T12:04:44.597Z,53.70
2023-03-15T12:07:30.004Z,54.00
2023-03-15T12:10:17.909Z,55.40
2023-03-15T12:12:58.266Z,53.20
2023-03-15T12:15:25.064Z,52.00
2023-03-15T12:17:59.709Z,52.80
2023-03-15T12:20:41.220Z,53.20
2023-03-15T12:23:16.932Z,53.70
2023-03-15T12:26:01.913Z,51.90
2023-03-15T12:28:31.642Z,53.20
2023-03-15T12:31:02.358Z,53.90
2023-03-15T12:33:32.212Z,50.80
2023-03-15T12:36:22.973Z,50.80
2023-03-15T12:39:02.353Z,51.70
2023-03-15T12:41:35.022Z,51.80
2023-03-15T12:44:20.234Z,51.40
2023-03-15T12:46:46.946Z,52.40
2023-03-15T12:49:31.118Z,51.90
2023-03-15T12:52:37.206Z,52.80
2023-03-15T12:55:16.807Z,53.40
2023-03-15T12:57:53.942Z,52.80
2023-03-15T13:00:30.435Z,51.60
2023-03-15T13:03:19.672Z,50.90
2023-03-15T13:06:08.960Z,51.00
2023-03-15T13:08:57.691Z,52.30
2023-03-15T13:11:36.720Z,52.60
2023-03-15T13:14:22.258Z,54.80
2023-03-15T13:16:58.223Z,53.40
2023-03-15T13:19:37.336Z,49.70
2023-03-15T13:22:46.747Z,50.20
2023-03-15T13:25:29.661Z,50.90
2023-03-15T13:28:05.476Z,51.60
2023-03-15T13:30:41.818Z,51.70
2023-03-15T13:33:08.466Z,50.70
2023-03-15T13:35:46.272Z,51.70
2023-03-15T13:38:27.564Z,52.10
2023-03-15T13:40:56.189Z,51.80
2023-03-15T13:43:42.341Z,52.30
2023-03-15T13:46:09.108Z,52.50
2023-03-15T13:48:39.906Z,52.00
2023-03-15T13:51:18.792Z,52.20
2023-03-15T13:53:50.196Z,49.40
2023-03-15T13:56:29.481Z,46.60
2023-03-15T13:58:57.561Z,42.30
2023-03-15T14:01:26.241Z,43.30
2023-03-15T14:04:01.848Z,42.10
2023-03-15T14:06:29.667Z,43.30
2023-03-15T14:09:06.549Z,42.10
2023-03-15T14:11:40.620Z,40.90
2023-03-15T14:14:29.185Z,43.60
2023-03-15T14:17:05.470Z,43.10
2023-03-15T14:19:35.488Z,43.40
2023-03-15T14:22:12.611Z,44.20
2023-03-15T14:24:41.667Z,46.40
2023-03-15T14:27:14.999Z,48.80
2023-03-15T14:30:13.390Z,50.50
2023-03-15T14:32:52.920Z,52.20
2023-03-15T14:35:25.472Z,52.80
2023-03-15T14:38:07.722Z,51.50
2023-03-15T14:40:38.650Z,52.60
2023-03-15T14:43:07.300Z,53.00
2023-03-15T14:45:37.260Z,52.90
2023-03-15T14:48:12.061Z,52.40
2023-03-15T14:50:41.520Z,53.00
2023-03-15T14:53:13.092Z,51.80
2023-03-15T14:55:40.839Z,51.20
2023-03-15T14:58:21.808Z,51.00
2023-03-15T15:00:54.525Z,53.10
2023-03-15T15:04:10.897Z,53.00
2023-03-15T15:06:38.299Z,53.20
2023-03-15T15:09:06.229Z,54.60
2023-03-15T15:11:33.303Z,53.60
2023-03-15T15:14:00.049Z,53.20
2023-03-15T15:16:27.100Z,52.90
2023-03-15T15:18:53.868Z,52.60
2023-03-15T15:21:33.924Z,52.90
2023-03-15T15:24:07.106Z,51.40
2023-03-15T15:26:34.428Z,51.30
2023-03-15T15:29:01.305Z,51.90
2023-03-15T15:31:29.529Z,51.90
2023-03-15T15:33:57.201Z,51.40
2023-03-15T15:36:35.895Z,53.40
2023-03-15T15:39:06.709Z,53.50
2023-03-15T15:41:34.168Z,53.70
2023-03-15T15:44:01.304Z,54.50
2023-03-15T15:46:28.310Z,54.30
2023-03-15T15:48:55.098Z,54.10
2023-03-15T15:51:27.710Z,52.80
2023-03-15T15:53:57.895Z,53.50
2023-03-15T15:56:31.854Z,52.10
2023-03-15T15:58:59.688Z,52.20
2023-03-15T16:01:26.478Z,52.30
2023-03-15T16:03:53.256Z,51.70
2023-03-15T16:06:21.362Z,51.50
2023-03-15T16:08:50.856Z,52.70
2023-03-15T16:11:18.419Z,52.20
2023-03-15T16:13:45.968Z,54.40
2023-03-15T16:16:17.391Z,54.60
2023-03-15T16:18:44.715Z,54.70
2023-03-15T16:21:24.916Z,55.80
2023-03-15T16:23:56.916Z,56.50
2023-03-15T16:26:23.820Z,56.90
2023-03-15T16:28:51.977Z,57.10
2023-03-15T16:31:22.171Z,58.10
2023-03-15T16:33:49.853Z,57.60
2023-03-15T16:36:21.495Z,58.20
2023-03-15T16:38:48.665Z,58.40
2023-03-15T16:41:16.872Z,58.70
2023-03-15T16:43:44.337Z,59.00
2023-03-15T16:46:17.691Z,58.50
2023-03-15T16:48:44.605Z,59.30
2023-03-15T16:51:15.167Z,59.30
2023-03-15T16:53:44.558Z,58.70
2023-03-15T16:56:13.523Z,58.60
2023-03-15T16:58:42.449Z,59.50
2023-03-15T17:01:10.907Z,60.00
2023-03-15T17:03:37.721Z,61.50
2023-03-15T17:06:04.660Z,61.50
2023-03-15T17:08:32.115Z,63.10
2023-03-15T17:10:59.323Z,63.80
2023-03-15T17:13:28.567Z,64.60
2023-03-15T17:15:55.373Z,65.70
2023-03-15T17:18:23.945Z,64.90
2023-03-15T17:20:51.029Z,65.40
2023-03-15T17:23:20.908Z,66.10
2023-03-15T17:25:48.331Z,65.70
2023-03-15T17:28:15.150Z,66.00
2023-03-15T17:30:42.213Z,66.50
2023-03-15T17:33:09.477Z,68.70
2023-03-15T17:35:42.028Z,70.10
2023-03-15T17:38:17.504Z,73.20
2023-03-15T17:40:44.665Z,74.90
2023-03-15T17:43:14.113Z,78.00
2023-03-15T17:45:41.220Z,81.80
2023-03-15T17:48:08.377Z,83.10
2023-03-15T17:50:35.740Z,82.00
2023-03-15T17:53:05.198Z,83.80
2023-03-15T17:55:36.156Z,85.20
2023-03-15T17:58:09.203Z,85.30
2023-03-15T18:00:36.136Z,87.00
2023-03-15T18:03:03.233Z,89.00
2023-03-15T18:05:30.036Z,90.20
2023-03-15T18:07:59.931Z,90.30
2023-03-15T18:10:36.417Z,89.40
2023-03-15T18:13:04.155Z,89.80
2023-03-15T18:15:31.562Z,90.30
2023-03-15T18:17:58.576Z,91.00
2023-03-15T18:20:26.011Z,91.60
2023-03-15T18:22:52.785Z,91.50
2023-03-15T18:25:25.736Z,92.40
2023-03-15T18:27:52.976Z,93.20
2023-03-15T18:30:22.929Z,94.10
2023-03-15T18:32:51.380Z,94.80
2023-03-15T18:35:30.185Z,95.20
2023-03-15T18:37:58.140Z,95.30
2023-03-15T18:40:27.858Z,96.60
2023-03-15T18:42:56.890Z,97.00
2023-03-15T18:45:30.619Z,98.10
2023-03-15T18:47:59.814Z,98.20
2023-03-15T18:50:27.721Z,98.70
2023-03-15T18:52:54.755Z,98.90
2023-03-15T18:55:23.066Z,99.10
2023-03-15T18:57:52.072Z,99.90
2023-03-15T19:00:26.121Z,99.90
2023-03-15T19:02:55.386Z,99.60
2023-03-15T19:05:22.289Z,99.90
2023-03-15T19:07:49.112Z,99.90
2023-03-15T19:10:19.113Z,99.90
2023-03-15T19:12:46.867Z,99.70
2023-03-15T19:15:17.530Z,99.10
2023-03-15T19:17:45.229Z,99.60
2023-03-15T19:20:13.545Z,99.70
2023-03-15T19:22:41.509Z,99.60
2023-03-15T19:25:11.641Z,99.90
2023-03-15T19:27:38.496Z,99.90
2023-03-15T19:30:08.862Z,99.90
2023-03-15T19:32:35.957Z,99.90
2023-03-15T19:35:02.998Z,99.90
2023-03-15T19:37:29.909Z,99.90
2023-03-15T19:39:56.627Z,99.90
2023-03-15T19:42:23.304Z,99.90
2023-03-15T19:44:50.009Z,99.90
2023-03-15T19:47:16.767Z,99.90
2023-03-15T19:49:43.539Z,99.90
2023-03-15T19:52:11.172Z,99.90
2023-03-15T19:54:37.895Z,99.90
2023-03-15T19:57:04.637Z,99.90
2023-03-15T19:59:35.587Z,99.90
2023-03-15T20:02:02.304Z,99.90
2023-03-15T20:04:29.039Z,99.90
2023-03-15T20:06:55.744Z,99.90
2023-03-15T20:09:22.470Z,99.90
2023-03-15T20:11:49.185Z,99.90
2023-03-15T20:14:17.041Z,99.90
2023-03-15T20:16:43.844Z,99.90
2023-03-15T20:19:10.565Z,99.90
2023-03-15T20:21:37.755Z,99.90
2023-03-15T20:24:06.789Z,99.90
2023-03-15T20:26:33.504Z,99.90
2023-03-15T20:29:01.226Z,99.90
2023-03-15T20:31:27.992Z,99.90
2023-03-15T20:33:54.739Z,99.90
2023-03-15T20:36:21.986Z,99.90
2023-03-15T20:38:48.710Z,99.90
2023-03-15T20:41:15.716Z,99.90
2023-03-15T20:43:43.125Z,99.90
2023-03-15T20:46:09.987Z,99.90
2023-03-15T20:48:37.682Z,99.90
2023-03-15T20:51:05.285Z,99.90
2023-03-15T20:53:33.723Z,99.90
2023-03-15T20:56:01.405Z,99.90
2023-03-15T20:58:28.121Z,99.90
2023-03-15T21:01:07.016Z,99.90
2023-03-15T21:03:35.170Z,99.90
2023-03-15T21:06:04.026Z,99.90
2023-03-15T21:08:31.104Z,99.90
2023-03-15T21:10:57.897Z,99.90
2023-03-15T21:13:24.788Z,99.90
2023-03-15T21:15:53.244Z,99.90
2023-03-15T21:18:22.143Z,99.90
2023-03-15T21:21:00.690Z,99.90
2023-03-15T21:23:30.950Z,99.90
2023-03-15T21:25:59.274Z,99.90
2023-03-15T21:28:26.306Z,99.90
2023-03-15T21:30:54.549Z,99.90
2023-03-15T21:33:22.912Z,99.90
2023-03-15T21:35:49.964Z,99.90
2023-03-15T21:38:17.450Z,99.90
2023-03-15T21:40:45.579Z,99.90
2023-03-15T21:43:12.377Z,99.90
2023-03-15T21:45:39.736Z,99.90
2023-03-15T21:48:07.147Z,99.90
2023-03-15T21:50:34.085Z,99.90
2023-03-15T21:53:02.007Z,99.90
2023-03-15T21:55:32.157Z,99.90
2023-03-15T21:57:59.466Z,99.90
2023-03-15T22:00:27.120Z,99.90
2023-03-15T22:02:55.682Z,99.90
2023-03-15T22:05:22.746Z,99.90
2023-03-15T22:07:49.634Z,99.90
2023-03-15T22:10:17.094Z,99.90
2023-03-15T22:12:44.181Z,99.90
2023-03-15T22:15:11.698Z,99.90
2023-03-15T22:17:38.424Z,99.90
2023-03-15T22:20:18.744Z,99.90
2023-03-15T22:22:49.269Z,99.90
2023-03-15T22:25:16.422Z,99.90
2023-03-15T22:27:43.402Z,99.90
2023-03-15T22:30:13.562Z,99.90
2023-03-15T22:32:44.221Z,99.90
2023-03-15T22:35:13.040Z,99.90
2023-03-15T22:37:40.678Z,99.90
2023-03-15T22:40:09.268Z,99.90
2023-03-15T22:42:35.950Z,99.90
2023-03-15T22:45:02.655Z,99.90
2023-03-15T22:47:29.332Z,99.90
2023-03-15T22:49:56.059Z,99.90
2023-03-15T22:52:22.759Z,99.90
2023-03-15T22:54:49.440Z,99.90
2023-03-15T22:57:16.126Z,99.90
2023-03-15T22:59:42.889Z,99.90
2023-03-15T23:02:09.765Z,99.90
2023-03-15T23:04:36.667Z,99.90
2023-03-15T23:07:03.417Z,99.90
2023-03-15T23:09:30.103Z,99.90
2023-03-15T23:11:56.848Z,99.90
2023-03-15T23:14:23.508Z,99.90
2023-03-15T23:16:53.435Z,99.90
2023-03-15T23:19:20.135Z,99.90
2023-03-15T23:21:46.845Z,99.90
2023-03-15T23:24:16.215Z,99.90
2023-03-15T23:26:43.672Z,99.90
2023-03-15T23:29:10.817Z,99.90
2023-03-15T23:31:41.959Z,99.90
2023-03-15T23:34:09.154Z,99.90
2023-03-15T23:36:35.954Z,99.90
2023-03-15T23:39:02.734Z,99.90
2023-03-15T23:41:29.525Z,99.90
2023-03-15T23:43:56.348Z,99.90
2023-03-15T23:46:25.873Z,99.90
2023-03-15T23:48:53.168Z,99.90
2023-03-15T23:51:22.076Z,99.90
2023-03-15T23:53:48.765Z,99.90
2023-03-15T23:56:15.446Z,99.90
2023-03-15T23:58:42.166Z,99.90
